Time;durP1;ratioP1;P1;durP2;ratioP2;P2;SDS_P1;SDS_P2;PMS_P1;PMS_P2;Temp;Humidity;BMP_temperature;BMP_pressure;BME280_temperature;BME280_humidity;BME280_pressure;Samples;Min_cycle;Max_cycle;Signal;HPM_P1;HPM_P2
2023/02/26 00:00:16;;;;;;;;;;;;;;;;;;4963676;28;19914;-48
2023/02/26 00:02:42;;;;;;;;;;;;;;;;;;4963487;28;20260;-46
2023/02/26 00:05:07;;;;;;;;;;;;;;;;;;4963838;28;19950;-48
2023/02/26 00:07:33;;;;;;;;;;;;;;;;;;4965141;28;19918;-44
2023/02/26 00:10:01;;;;;;;;;;;;;;;;;;4963627;28;20422;-46
2023/02/26 00:12:27;;;;;;;;;;;;;;;;;;4965662;28;20284;-44
2023/02/26 00:14:53;;;;;;;;;;;;;;;;;;4960846;28;19922;-44
2023/02/26 00:17:19;;;;;;;;;;;;;;;;;;4962970;28;19914;-47
2023/02/26 00:19:44;;;;;;;;;;;;;;;;;;4964781;28;19906;-44
2023/02/26 00:22:10;;;;;;;;;;;;;;;;;;4964653;28;19907;-46
2023/02/26 00:24:36;;;;;;;;;;;;;;;;;;4964539;28;19910;-46
2023/02/26 00:27:02;;;;;;;;;;;;;;;;;;4945276;28;19917;-44
2023/02/26 00:29:28;;;;;;;;;;;;;;;;;;4962364;28;19956;-45
2023/02/26 00:31:54;;;;;;;;;;;;;;;;;;4964136;28;19910;-44
2023/02/26 00:34:19;;;;;;;;;;;;;;;;;;4963943;28;20359;-46
2023/02/26 00:36:45;;;;;;;;;;;;;;;;;;4964785;28;19906;-46
2023/02/26 00:39:11;;;;;;;;;;;;;;;;;;4964204;28;19910;-49
2023/02/26 00:41:38;;;;;;;;;;;;;;;;;;4961304;28;19974;-46
2023/02/26 00:44:04;;;;;;;;;;;;;;;;;;4964082;28;19941;-46
2023/02/26 00:46:29;;;;;;;;;;;;;;;;;;4965810;28;19972;-49
2023/02/26 00:48:55;;;;;;;;;;;;;;;;;;4962845;28;20046;-45
2023/02/26 00:51:21;;;;;;;;;;;;;;;;;;4960266;28;19918;-48
2023/02/26 00:53:47;;;;;;;;;;;;;;;;;;4963268;28;19921;-45
2023/02/26 00:56:13;;;;;;;;;;;;;;;;;;4965989;28;19938;-44
2023/02/26 00:58:39;;;;;;;;;;;;;;;;;;4962293;28;19910;-44
2023/02/26 01:01:05;;;;;;;;;;;;;;;;;;4962801;28;19914;-46
2023/02/26 01:03:30;;;;;;;;;;;;;;;;;;4964564;28;20028;-47
2023/02/26 01:05:56;;;;;;;;;;;;;;;;;;4959929;28;20383;-45
2023/02/26 01:08:22;;;;;;;;;;;;;;;;;;4962875;28;19941;-44
2023/02/26 01:10:48;;;;;;;;;;;;;;;;;;4964835;28;19910;-46
2023/02/26 01:13:14;;;;;;;;;;;;;;;;;;4962879;28;20602;-44
2023/02/26 01:15:40;;;;;;;;;;;;;;;;;;4961987;28;19997;-45
2023/02/26 01:18:06;;;;;;;;;;;;;;;;;;4962697;28;20275;-44
2023/02/26 01:20:32;;;;;;;;;;;;;;;;;;4961775;28;20291;-44
2023/02/26 01:22:58;;;;;;;;;;;;;;;;;;4963003;28;19953;-47
2023/02/26 01:25:24;;;;;;;;;;;;;;;;;;4962984;28;19910;-44
2023/02/26 01:27:50;;;;;;;;;;;;;;;;;;4962737;28;19907;-44
2023/02/26 01:30:16;;;;;;;;;;;;;;;;;;4959229;28;19929;-44
2023/02/26 01:32:42;;;;;;;;;;;;;;;;;;4961409;28;19910;-45
2023/02/26 01:35:08;;;;;;;;;;;;;;;;;;4962257;28;19915;-46
2023/02/26 01:37:34;;;;;;;;;;;;;;;;;;4963807;28;20275;-46
2023/02/26 01:40:00;;;;;;;;;;;;;;;;;;4960337;28;19957;-47
2023/02/26 01:42:26;;;;;;;;;;;;;;;;;;4963947;28;19906;-46
2023/02/26 01:44:52;;;;;;;;;;;;;;;;;;4960018;28;19910;-45
2023/02/26 01:47:17;;;;;;;;;;;;;;;;;;4957101;28;20260;-48
2023/02/26 01:49:43;;;;;;;;;;;;;;;;;;4963155;28;19911;-44
2023/02/26 01:52:09;;;;;;;;;;;;;;;;;;4961610;28;19914;-43
2023/02/26 01:54:35;;;;;;;;;;;;;;;;;;4961261;28;19940;-45
2023/02/26 01:57:03;;;;;;;;;;;;;;;;;;4962984;28;19974;-45
2023/02/26 01:59:29;;;;;;;;;;;;;;;;;;4962963;28;19910;-46
2023/02/26 02:01:55;;;;;;;;;;;;;;;;;;4962602;28;20290;-44
2023/02/26 02:04:21;;;;;;;;;;;;;;;;;;4959166;28;19918;-46
2023/02/26 02:06:47;;;;;;;;;;;;;;;;;;4962115;28;19992;-44
2023/02/26 02:09:13;;;;;;;;;;;;;;;;;;4963422;28;19991;-48
2023/02/26 02:11:39;;;;;;;;;;;;;;;;;;4962976;28;19911;-46
2023/02/26 02:14:05;;;;;;;;;;;;;;;;;;4961735;28;19924;-47
2023/02/26 02:16:31;;;;;;;;;;;;;;;;;;4971204;28;20267;-45
2023/02/26 02:18:57;;;;;;;;;;;;;;;;;;4968688;28;19918;-46
2023/02/26 02:21:23;;;;;;;;;;;;;;;;;;4971334;28;19913;-45
2023/02/26 02:23:49;;;;;;;;;;;;;;;;;;4971310;28;20375;-44
2023/02/26 02:26:15;;;;;;;;;;;;;;;;;;4970099;28;19989;-44
2023/02/26 02:28:41;;;;;;;;;;;;;;;;;;4970182;28;19906;-44
2023/02/26 02:31:07;;;;;;;;;;;;;;;;;;4970387;28;20276;-44
2023/02/26 02:33:33;;;;;;;;;;;;;;;;;;4970869;28;19918;-45
2023/02/26 02:35:58;;;;;;;;;;;;;;;;;;4970080;28;20004;-44
2023/02/26 02:38:24;;;;;;;;;;;;;;;;;;4971210;28;19957;-44
2023/02/26 02:40:50;;;;;;;;;;;;;;;;;;4969589;28;20288;-44
2023/02/26 02:43:16;;;;;;;;;;;;;;;;;;4971355;28;19914;-44
2023/02/26 02:45:42;;;;;;;;;;;;;;;;;;4969463;28;19910;-44
2023/02/26 02:48:08;;;;;;;;;;;;;;;;;;4970917;28;19906;-45
2023/02/26 02:50:34;;;;;;;;;;;;;;;;;;4971184;28;19910;-44
2023/02/26 02:53:00;;;;;;;;;;;;;;;;;;4969193;28;19914;-44
2023/02/26 02:55:26;;;;;;;;;;;;;;;;;;4971326;28;19922;-44
2023/02/26 02:57:52;;;;;;;;;;;;;;;;;;4971586;28;20004;-45
2023/02/26 03:00:18;;;;;;;;;;;;;;;;;;4970642;28;19929;-44
2023/02/26 03:02:44;;;;;;;;;;;;;;;;;;4970929;28;19925;-44
2023/02/26 03:05:09;;;;;;;;;;;;;;;;;;4968648;28;19910;-45
2023/02/26 03:07:35;;;;;;;;;;;;;;;;;;4972042;28;19953;-45
2023/02/26 03:10:01;;;;;;;;;;;;;;;;;;4970283;28;19909;-45
2023/02/26 03:12:27;;;;;;;;;;;;;;;;;;4971988;28;19913;-45
2023/02/26 03:14:53;;;;;;;;;;;;;;;;;;4969528;28;20482;-45
2023/02/26 03:17:19;;;;;;;;;;;;;;;;;;4971343;28;19914;-45
2023/02/26 03:19:45;;;;;;;;;;;;;;;;;;4969811;28;20382;-44
2023/02/26 03:22:12;;;;;;;;;;;;;;;;;;4971314;28;19906;-45
2023/02/26 03:24:38;;;;;;;;;;;;;;;;;;4971026;28;19906;-45
2023/02/26 03:27:04;;;;;;;;;;;;;;;;;;4969551;28;20350;-44
2023/02/26 03:29:30;;;;;;;;;;;;;;;;;;4970542;28;19906;-46
2023/02/26 03:31:56;;;;;;;;;;;;;;;;;;4970050;28;20556;-45
2023/02/26 03:34:22;;;;;;;;;;;;;;;;;;4971092;28;19965;-44
2023/02/26 03:36:48;;;;;;;;;;;;;;;;;;4969538;28;20459;-46
2023/02/26 03:39:14;;;;;;;;;;;;;;;;;;4970311;28;20000;-45
2023/02/26 03:41:40;;;;;;;;;;;;;;;;;;4971244;28;20278;-44
2023/02/26 03:44:06;;;;;;;;;;;;;;;;;;4970558;28;19906;-45
2023/02/26 03:46:31;;;;;;;;;;;;;;;;;;4974635;28;19988;-47
2023/02/26 03:48:57;;;;;;;;;;;;;;;;;;4974981;28;19913;-45
2023/02/26 03:51:23;;;;;;;;;;;;;;;;;;4975024;28;19910;-48
2023/02/26 03:53:49;;;;;;;;;;;;;;;;;;4975451;28;20470;-48
2023/02/26 03:56:15;;;;;;;;;;;;;;;;;;4964422;28;19907;-45
2023/02/26 03:58:41;;;;;;;;;;;;;;;;;;4976223;28;19917;-45
2023/02/26 04:01:07;;;;;;;;;;;;;;;;;;4974241;28;19998;-44
2023/02/26 04:03:32;;;;;;;;;;;;;;;;;;4974542;28;19910;-46
2023/02/26 04:05:58;;;;;;;;;;;;;;;;;;4974379;28;20363;-47
2023/02/26 04:08:24;;;;;;;;;;;;;;;;;;4975543;28;19968;-44
2023/02/26 04:10:50;;;;;;;;;;;;;;;;;;4974956;28;19913;-46
2023/02/26 04:13:16;;;;;;;;;;;;;;;;;;4973327;28;20248;-44
2023/02/26 04:15:42;;;;;;;;;;;;;;;;;;4974996;28;19914;-44
2023/02/26 04:18:08;;;;;;;;;;;;;;;;;;4974895;28;19917;-45
2023/02/26 04:20:34;;;;;;;;;;;;;;;;;;4975223;28;20003;-48
2023/02/26 04:22:59;;;;;;;;;;;;;;;;;;4973972;28;19910;-45
2023/02/26 04:25:25;;;;;;;;;;;;;;;;;;4974049;28;19906;-45
2023/02/26 04:27:51;;;;;;;;;;;;;;;;;;4975539;28;19989;-43
2023/02/26 04:30:17;;;;;;;;;;;;;;;;;;4973154;28;21112;-44
2023/02/26 04:32:43;;;;;;;;;;;;;;;;;;4975076;28;19909;-44
2023/02/26 04:35:09;;;;;;;;;;;;;;;;;;4973435;28;19914;-45
2023/02/26 04:37:35;;;;;;;;;;;;;;;;;;4974733;28;20000;-45
2023/02/26 04:40:00;;;;;;;;;;;;;;;;;;4973585;28;19913;-46
2023/02/26 04:42:26;;;;;;;;;;;;;;;;;;4973948;28;20394;-46
2023/02/26 04:44:56;;;;;;;;;;;;;;;;;;4974566;28;19906;-44
2023/02/26 04:47:21;;;;;;;;;;;;;;;;;;4974552;28;19914;-45
2023/02/26 04:49:47;;;;;;;;;;;;;;;;;;4974324;28;19906;-48
2023/02/26 04:52:13;;;;;;;;;;;;;;;;;;4974224;28;19940;-47
2023/02/26 04:54:40;;;;;;;;;;;;;;;;;;4972217;28;19914;-45
2023/02/26 04:57:05;;;;;;;;;;;;;;;;;;4973155;28;20268;-46
2023/02/26 04:59:31;;;;;;;;;;;;;;;;;;4974562;28;20005;-47
2023/02/26 05:01:57;;;;;;;;;;;;;;;;;;4974518;28;19913;-44
2023/02/26 05:04:23;;;;;;;;;;;;;;;;;;4974693;28;19976;-44
2023/02/26 05:06:49;;;;;;;;;;;;;;;;;;4973571;28;19910;-45
2023/02/26 05:09:15;;;;;;;;;;;;;;;;;;4973917;28;19945;-45
2023/02/26 05:11:41;;;;;;;;;;;;;;;;;;4970187;28;20308;-43
2023/02/26 05:14:07;;;;;;;;;;;;;;;;;;4986569;28;19925;-46
2023/02/26 05:16:33;;;;;;;;;;;;;;;;;;4982779;28;19911;-47
2023/02/26 05:18:59;;;;;;;;;;;;;;;;;;4973171;28;20004;-44
2023/02/26 05:21:25;;;;;;;;;;;;;;;;;;4973609;28;19910;-44
2023/02/26 05:23:50;;;;;;;;;;;;;;;;;;4974933;28;20359;-46
2023/02/26 05:26:16;;;;;;;;;;;;;;;;;;4973289;28;20004;-46
2023/02/26 05:28:44;;;;;;;;;;;;;;;;;;4971049;28;20283;-46
2023/02/26 05:31:10;;;;;;;;;;;;;;;;;;4974908;28;20323;-48
2023/02/26 05:33:36;;;;;;;;;;;;;;;;;;4974057;28;19906;-46
2023/02/26 05:36:02;;;;;;;;;;;;;;;;;;4974111;28;19945;-44
2023/02/26 05:38:28;;;;;;;;;;;;;;;;;;4976638;28;20001;-46
2023/02/26 05:40:54;;;;;;;;;;;;;;;;;;4972366;28;19973;-44
2023/02/26 05:43:19;;;;;;;;;;;;;;;;;;4973609;28;20355;-44
2023/02/26 05:45:45;;;;;;;;;;;;;;;;;;4973754;28;19914;-48
2023/02/26 05:48:12;;;;;;;;;;;;;;;;;;4972933;28;19906;-44
2023/02/26 05:50:38;;;;;;;;;;;;;;;;;;4972893;28;19926;-46
2023/02/26 05:53:04;;;;;;;;;;;;;;;;;;4973181;28;19906;-45
2023/02/26 05:55:29;;;;;;;;;;;;;;;;;;4973435;28;20360;-47
2023/02/26 05:57:55;;;;;;;;;;;;;;;;;;4972559;28;19906;-44
2023/02/26 06:00:21;;;;;;;;;;;;;;;;;;4972543;28;19906;-46
2023/02/26 06:02:47;;;;;;;;;;;;;;;;;;4973566;28;19910;-44
2023/02/26 06:05:13;;;;;;;;;;;;;;;;;;4971306;28;19906;-45
2023/02/26 06:07:39;;;;;;;;;;;;;;;;;;4982657;28;19983;-44
2023/02/26 06:10:05;;;;;;;;;;;;;;;;;;4972372;28;19906;-44
2023/02/26 06:12:30;;;;;;;;;;;;;;;;;;4973216;28;19913;-47
2023/02/26 06:14:56;;;;;;;;;;;;;;;;;;4970245;28;20383;-46
2023/02/26 06:17:22;;;;;;;;;;;;;;;;;;4962281;28;19906;-44
2023/02/26 06:19:48;;;;;;;;;;;;;;;;;;4962046;28;19914;-46
2023/02/26 06:22:14;;;;;;;;;;;;;;;;;;4966758;28;19914;-46
2023/02/26 06:24:40;;;;;;;;;;;;;;;;;;4955120;28;19968;-46
2023/02/26 06:27:06;;;;;;;;;;;;;;;;;;4953583;28;19960;-49
2023/02/26 06:29:32;;;;;;;;;;;;;;;;;;4959957;28;20370;-44
2023/02/26 06:31:58;;;;;;;;;;;;;;;;;;4947973;28;19917;-44
2023/02/26 06:34:23;;;;;;;;;;;;;;;;;;4972979;28;20437;-44
2023/02/26 06:36:49;;;;;;;;;;;;;;;;;;4964806;28;19921;-44
2023/02/26 06:39:15;;;;;;;;;;;;;;;;;;4948456;28;20012;-44
2023/02/26 06:41:41;;;;;;;;;;;;;;;;;;4969678;28;19906;-45
2023/02/26 06:44:07;;;;;;;;;;;;;;;;;;4972038;28;20000;-44
2023/02/26 06:46:33;;;;;;;;;;;;;;;;;;4962124;28;19910;-46
2023/02/26 06:48:59;;;;;;;;;;;;;;;;;;4972377;28;19982;-44
2023/02/26 06:51:25;;;;;;;;;;;;;;;;;;4973497;28;19906;-44
2023/02/26 06:53:51;;;;;;;;;;;;;;;;;;4958236;28;19944;-45
2023/02/26 06:56:16;;;;;;;;;;;;;;;;;;4950461;28;19982;-46
2023/02/26 06:58:42;;;;;;;;;;;;;;;;;;4958158;28;20415;-45
2023/02/26 07:01:09;;;;;;;;;;;;;;;;;;4950924;28;19915;-45
2023/02/26 07:03:35;;;;;;;;;;;;;;;;;;4966946;28;19906;-47
2023/02/26 07:06:00;;;;;;;;;;;;;;;;;;4966406;28;19964;-46
2023/02/26 07:08:26;;;;;;;;;;;;;;;;;;4951677;28;19956;-45
2023/02/26 07:10:52;;;;;;;;;;;;;;;;;;4957051;28;19907;-48
2023/02/26 07:13:18;;;;;;;;;;;;;;;;;;4968350;28;19910;-48
2023/02/26 07:15:44;;;;;;;;;;;;;;;;;;4971520;28;20359;-44
2023/02/26 07:18:10;;;;;;;;;;;;;;;;;;4957610;28;19910;-44
2023/02/26 07:20:36;;;;;;;;;;;;;;;;;;4956298;28;19922;-44
2023/02/26 07:23:02;;;;;;;;;;;;;;;;;;4974270;28;19913;-44
2023/02/26 07:25:28;;;;;;;;;;;;;;;;;;4964211;28;19906;-44
2023/02/26 07:27:55;;;;;;;;;;;;;;;;;;4958836;28;20260;-44
2023/02/26 07:30:21;;;;;;;;;;;;;;;;;;4956443;28;19906;-44
2023/02/26 07:32:46;;;;;;;;;;;;;;;;;;4949079;28;20263;-46
2023/02/26 07:35:12;;;;;;;;;;;;;;;;;;4954708;28;20013;-44
2023/02/26 07:37:38;;;;;;;;;;;;;;;;;;4958487;28;19925;-47
2023/02/26 07:40:04;;;;;;;;;;;;;;;;;;4955892;28;19914;-49
2023/02/26 07:42:30;;;;;;;;;;;;;;;;;;4958717;28;19997;-46
2023/02/26 07:44:56;;;;;;;;;;;;;;;;;;4961805;28;19960;-44
2023/02/26 07:47:22;;;;;;;;;;;;;;;;;;4955087;28;20415;-50
2023/02/26 07:49:48;;;;;;;;;;;;;;;;;;4956567;28;19910;-46
2023/02/26 07:52:13;;;;;;;;;;;;;;;;;;4960958;28;19965;-46
2023/02/26 07:54:39;;;;;;;;;;;;;;;;;;4969027;28;19953;-45
2023/02/26 07:57:05;;;;;;;;;;;;;;;;;;4970838;28;19906;-44
2023/02/26 07:59:31;;;;;;;;;;;;;;;;;;4971044;28;19972;-46
2023/02/26 08:01:57;;;;;;;;;;;;;;;;;;4969708;28;19952;-43
2023/02/26 08:04:23;;;;;;;;;;;;;;;;;;4970209;28;20000;-44
2023/02/26 08:06:49;;;;;;;;;;;;;;;;;;4961517;28;19911;-44
2023/02/26 08:09:15;;;;;;;;;;;;;;;;;;4953326;28;20483;-45
2023/02/26 08:11:42;;;;;;;;;;;;;;;;;;4958066;28;20340;-44
2023/02/26 08:14:08;;;;;;;;;;;;;;;;;;4963134;28;19998;-46
2023/02/26 08:16:33;;;;;;;;;;;;;;;;;;4970545;28;19910;-44
2023/02/26 08:18:59;;;;;;;;;;;;;;;;;;4968045;28;19910;-45
2023/02/26 08:21:25;;;;;;;;;;;;;;;;;;4974333;28;20370;-47
2023/02/26 08:23:51;;;;;;;;;;;;;;;;;;4974581;28;19948;-48
2023/02/26 08:26:17;;;;;;;;;;;;;;;;;;4972031;28;19961;-47
2023/02/26 08:28:43;;;;;;;;;;;;;;;;;;4972726;28;19910;-48
2023/02/26 08:31:09;;;;;;;;;;;;;;;;;;4970355;28;20458;-48
2023/02/26 08:33:35;;;;;;;;;;;;;;;;;;4972852;28;19956;-48
2023/02/26 08:36:01;;;;;;;;;;;;;;;;;;4972744;28;19909;-48
2023/02/26 08:38:27;;;;;;;;;;;;;;;;;;4973297;28;19910;-48
2023/02/26 08:40:53;;;;;;;;;;;;;;;;;;4973608;28;19918;-48
2023/02/26 08:43:19;;;;;;;;;;;;;;;;;;4973834;28;19937;-48
2023/02/26 08:45:45;;;;;;;;;;;;;;;;;;4974242;28;20004;-49
2023/02/26 08:48:11;;;;;;;;;;;;;;;;;;4972425;28;19910;-48
2023/02/26 08:50:37;;;;;;;;;;;;;;;;;;4967037;28;19950;-48
2023/02/26 08:53:03;;;;;;;;;;;;;;;;;;4973141;28;19906;-47
2023/02/26 08:55:29;;;;;;;;;;;;;;;;;;4973461;28;19973;-48
2023/02/26 08:57:54;;;;;;;;;;;;;;;;;;4972256;28;19997;-47
2023/02/26 09:00:20;;;;;;;;;;;;;;;;;;4972904;28;19928;-47
2023/02/26 09:02:46;;;;;;;;;;;;;;;;;;4971793;28;19937;-48
2023/02/26 09:05:13;;;;;;;;;;;;;;;;;;4971745;28;20490;-48
2023/02/26 09:07:39;;;;;;;;;;;;;;;;;;4972148;28;20001;-47
2023/02/26 09:10:05;;;;;;;;;;;;;;;;;;4972447;28;19941;-48
2023/02/26 09:12:31;;;;;;;;;;;;;;;;;;4971690;28;19917;-47
2023/02/26 09:14:57;;;;;;;;;;;;;;;;;;4968794;28;19918;-43
2023/02/26 09:17:23;;;;;;;;;;;;;;;;;;4973911;28;19965;-44
2023/02/26 09:19:49;;;;;;;;;;;;;;;;;;4972776;28;19910;-43
2023/02/26 09:22:15;;;;;;;;;;;;;;;;;;4972609;28;19902;-44
2023/02/26 09:24:41;;;;;;;;;;;;;;;;;;4972163;28;19953;-46
2023/02/26 09:27:07;;;;;;;;;;;;;;;;;;4971559;28;19914;-46
2023/02/26 09:29:33;;;;;;;;;;;;;;;;;;4972779;28;19910;-43
2023/02/26 09:31:59;;;;;;;;;;;;;;;;;;4970862;28;19910;-44
2023/02/26 09:34:25;;;;;;;;;;;;;;;;;;4972592;28;20081;-44
2023/02/26 09:36:50;;;;;;;;;;;;;;;;;;4971962;28;19910;-44
2023/02/26 09:39:16;;;;;;;;;;;;;;;;;;4973735;28;19982;-45
2023/02/26 09:41:42;;;;;;;;;;;;;;;;;;4972399;28;20351;-43
2023/02/26 09:44:08;;;;;;;;;;;;;;;;;;4971556;28;19910;-45
2023/02/26 09:46:34;;;;;;;;;;;;;;;;;;4971100;28;19950;-44
2023/02/26 09:49:00;;;;;;;;;;;;;;;;;;4971624;28;19910;-48
2023/02/26 09:51:26;;;;;;;;;;;;;;;;;;4955809;28;19905;-46
2023/02/26 09:53:52;;;;;;;;;;;;;;;;;;4972305;28;19917;-46
2023/02/26 09:56:18;;;;;;;;;;;;;;;;;;4971729;28;19933;-47
2023/02/26 09:58:44;;;;;;;;;;;;;;;;;;4954807;28;19957;-45
2023/02/26 10:01:09;;;;;;;;;;;;;;;;;;4969027;28;19907;-45
2023/02/26 10:03:35;;;;;;;;;;;;;;;;;;4971314;28;19974;-50
2023/02/26 10:06:02;;;;;;;;;;;;;;;;;;4971219;28;19937;-46
2023/02/26 10:08:28;;;;;;;;;;;;;;;;;;4973170;28;19906;-48
2023/02/26 10:10:54;;;;;;;;;;;;;;;;;;4971829;28;19914;-44
2023/02/26 10:13:20;;;;;;;;;;;;;;;;;;4971472;28;19968;-44
2023/02/26 10:15:45;;;;;;;;;;;;;;;;;;4971102;28;19921;-44
2023/02/26 10:18:11;;;;;;;;;;;;;;;;;;4967193;28;19915;-43
2023/02/26 10:20:38;;;;;;;;;;;;;;;;;;4973147;28;19953;-44
2023/02/26 10:23:04;;;;;;;;;;;;;;;;;;4954035;28;20315;-43
2023/02/26 10:25:30;;;;;;;;;;;;;;;;;;4971768;28;19910;-46
2023/02/26 10:27:56;;;;;;;;;;;;;;;;;;4971010;28;19906;-44
2023/02/26 10:30:21;;;;;;;;;;;;;;;;;;4972092;28;19960;-45
2023/02/26 10:32:47;;;;;;;;;;;;;;;;;;4971535;28;19906;-47
2023/02/26 10:35:13;;;;;;;;;;;;;;;;;;4965940;28;20060;-45
2023/02/26 10:37:39;;;;;;;;;;;;;;;;;;4968515;28;19917;-44
2023/02/26 10:40:08;;;;;;;;;;;;;;;;;;4970158;28;19917;-45
2023/02/26 10:42:33;;;;;;;;;;;;;;;;;;4970784;28;19912;-46
2023/02/26 10:44:59;;;;;;;;;;;;;;;;;;4970542;28;20364;-44
2023/02/26 10:47:25;;;;;;;;;;;;;;;;;;4968477;28;19910;-44
2023/02/26 10:49:51;;;;;;;;;;;;;;;;;;4971660;28;19906;-44
2023/02/26 10:52:17;;;;;;;;;;;;;;;;;;4969929;28;20267;-45
2023/02/26 10:54:43;;;;;;;;;;;;;;;;;;4966841;28;19917;-43
2023/02/26 10:57:09;;;;;;;;;;;;;;;;;;4973487;28;19917;-45
2023/02/26 10:59:35;;;;;;;;;;;;;;;;;;4974636;28;19906;-46
2023/02/26 11:02:00;;;;;;;;;;;;;;;;;;4974690;28;19953;-43
2023/02/26 11:04:26;;;;;;;;;;;;;;;;;;4973970;28;20283;-45
2023/02/26 11:06:53;;;;;;;;;;;;;;;;;;4975148;28;19910;-47
2023/02/26 11:09:20;;;;;;;;;;;;;;;;;;4974530;28;20373;-47
2023/02/26 11:11:46;;;;;;;;;;;;;;;;;;4975052;28;19912;-47
2023/02/26 11:14:13;;;;;;;;;;;;;;;;;;4973190;28;19922;-45
2023/02/26 11:16:39;;;;;;;;;;;;;;;;;;4973178;28;20299;-44
2023/02/26 11:19:05;;;;;;;;;;;;;;;;;;4973694;28;19910;-44
2023/02/26 11:21:30;;;;;;;;;;;;;;;;;;4974696;28;19997;-45
2023/02/26 11:23:56;;;;;;;;;;;;;;;;;;4974400;28;19907;-43
2023/02/26 11:26:22;;;;;;;;;;;;;;;;;;4976602;28;19906;-45
2023/02/26 11:28:48;;;;;;;;;;;;;;;;;;4974505;28;20060;-43
2023/02/26 11:31:14;;;;;;;;;;;;;;;;;;4973558;28;19905;-45
2023/02/26 11:33:40;;;;;;;;;;;;;;;;;;4975446;28;19929;-48
2023/02/26 11:36:06;;;;;;;;;;;;;;;;;;4985845;28;20003;-44
2023/02/26 11:38:32;;;;;;;;;;;;;;;;;;4976296;28;19988;-43
2023/02/26 11:40:58;;;;;;;;;;;;;;;;;;4965075;28;19921;-44
2023/02/26 11:43:24;;;;;;;;;;;;;;;;;;4976431;28;19906;-46
2023/02/26 11:45:50;;;;;;;;;;;;;;;;;;4976834;28;19907;-45
2023/02/26 11:48:16;;;;;;;;;;;;;;;;;;4975180;28;19902;-43
2023/02/26 11:50:42;;;;;;;;;;;;;;;;;;4970028;28;20356;-43
2023/02/26 11:53:09;;;;;;;;;;;;;;;;;;4983835;28;20351;-47
2023/02/26 11:55:35;;;;;;;;;;;;;;;;;;4974401;28;20334;-43
2023/02/26 11:58:01;;;;;;;;;;;;;;;;;;4975992;28;19946;-48
2023/02/26 12:00:26;;;;;;;;;;;;;;;;;;4976065;28;19906;-44
2023/02/26 12:02:52;;;;;;;;;;;;;;;;;;4975303;28;19906;-44
2023/02/26 12:05:18;;;;;;;;;;;;;;;;;;4974592;28;20434;-44
2023/02/26 12:07:45;;;;;;;;;;;;;;;;;;4979247;28;19912;-43
2023/02/26 12:10:12;;;;;;;;;;;;;;;;;;4976825;28;20342;-43
2023/02/26 12:12:37;;;;;;;;;;;;;;;;;;4975995;28;19906;-44
2023/02/26 12:15:03;;;;;;;;;;;;;;;;;;4972938;28;19918;-43
2023/02/26 12:17:31;;;;;;;;;;;;;;;;;;4975446;28;19906;-43
2023/02/26 12:19:56;;;;;;;;;;;;;;;;;;4974688;28;20352;-45
2023/02/26 12:22:22;;;;;;;;;;;;;;;;;;4971724;28;19906;-44
2023/02/26 12:24:48;;;;;;;;;;;;;;;;;;4968863;28;19918;-46
2023/02/26 12:27:14;;;;;;;;;;;;;;;;;;4955992;28;19905;-47
2023/02/26 12:29:40;;;;;;;;;;;;;;;;;;4969572;28;19906;-44
2023/02/26 12:32:06;;;;;;;;;;;;;;;;;;4972964;28;19917;-44
2023/02/26 12:34:32;;;;;;;;;;;;;;;;;;4974370;28;20359;-45
2023/02/26 12:36:58;;;;;;;;;;;;;;;;;;4973290;28;20007;-44
2023/02/26 12:39:23;;;;;;;;;;;;;;;;;;4974384;28;20382;-44
2023/02/26 12:41:49;;;;;;;;;;;;;;;;;;4975600;28;19906;-44
2023/02/26 12:44:15;;;;;;;;;;;;;;;;;;4973774;28;19953;-45
2023/02/26 12:46:41;;;;;;;;;;;;;;;;;;4973821;28;19914;-45
2023/02/26 12:49:07;;;;;;;;;;;;;;;;;;4968584;28;19910;-45
2023/02/26 12:51:33;;;;;;;;;;;;;;;;;;4974306;28;19910;-46
2023/02/26 12:53:59;;;;;;;;;;;;;;;;;;4973383;28;19906;-44
2023/02/26 12:56:25;;;;;;;;;;;;;;;;;;4974231;28;20008;-44
2023/02/26 12:58:51;;;;;;;;;;;;;;;;;;4973984;28;19961;-44
2023/02/26 13:01:16;;;;;;;;;;;;;;;;;;4973571;28;20425;-44
2023/02/26 13:03:42;;;;;;;;;;;;;;;;;;4974343;28;19952;-45
2023/02/26 13:06:08;;;;;;;;;;;;;;;;;;4973146;28;19936;-47
2023/02/26 13:08:34;;;;;;;;;;;;;;;;;;4974149;28;19913;-45
2023/02/26 13:11:00;;;;;;;;;;;;;;;;;;4971779;28;19945;-44
2023/02/26 13:13:26;;;;;;;;;;;;;;;;;;4973799;28;20419;-45
2023/02/26 13:15:52;;;;;;;;;;;;;;;;;;4974088;28;19914;-44
2023/02/26 13:18:17;;;;;;;;;;;;;;;;;;4969210;28;20000;-45
2023/02/26 13:20:43;;;;;;;;;;;;;;;;;;4973515;28;19928;-45
2023/02/26 13:23:09;;;;;;;;;;;;;;;;;;4969349;28;19911;-43
2023/02/26 13:25:35;;;;;;;;;;;;;;;;;;4977840;28;20358;-46
2023/02/26 13:28:01;;;;;;;;;;;;;;;;;;4973873;28;19946;-45
2023/02/26 13:30:27;;;;;;;;;;;;;;;;;;4974025;28;19906;-44
2023/02/26 13:32:53;;;;;;;;;;;;;;;;;;4974453;28;19968;-43
2023/02/26 13:35:19;;;;;;;;;;;;;;;;;;4966779;28;19924;-45
2023/02/26 13:37:45;;;;;;;;;;;;;;;;;;4974190;28;20364;-44
2023/02/26 13:40:11;;;;;;;;;;;;;;;;;;4967432;28;19958;-44
2023/02/26 13:42:37;;;;;;;;;;;;;;;;;;4973655;28;20279;-43
2023/02/26 13:45:03;;;;;;;;;;;;;;;;;;4971785;28;19925;-47
2023/02/26 13:47:29;;;;;;;;;;;;;;;;;;4973041;28;19916;-45
2023/02/26 13:49:55;;;;;;;;;;;;;;;;;;4973054;28;19906;-43
2023/02/26 13:52:21;;;;;;;;;;;;;;;;;;4973196;28;19944;-44
2023/02/26 13:54:47;;;;;;;;;;;;;;;;;;4972342;28;20356;-45
2023/02/26 13:57:13;;;;;;;;;;;;;;;;;;4972626;28;19914;-44
2023/02/26 13:59:38;;;;;;;;;;;;;;;;;;4973513;28;19949;-48
2023/02/26 14:02:04;;;;;;;;;;;;;;;;;;4972796;28;20363;-44
2023/02/26 14:04:30;;;;;;;;;;;;;;;;;;4972470;28;19906;-44
2023/02/26 14:06:56;;;;;;;;;;;;;;;;;;4972841;28;19984;-43
2023/02/26 14:09:22;;;;;;;;;;;;;;;;;;4972135;28;19910;-44
2023/02/26 14:11:48;;;;;;;;;;;;;;;;;;4973590;28;19917;-45
2023/02/26 14:14:14;;;;;;;;;;;;;;;;;;4971731;28;20558;-46
2023/02/26 14:16:40;;;;;;;;;;;;;;;;;;4971658;28;20252;-45
2023/02/26 14:19:06;;;;;;;;;;;;;;;;;;4971901;28;19906;-44
2023/02/26 14:21:32;;;;;;;;;;;;;;;;;;4973191;28;19912;-46
2023/02/26 14:23:58;;;;;;;;;;;;;;;;;;4972138;28;19906;-43
2023/02/26 14:26:23;;;;;;;;;;;;;;;;;;4972755;28;19945;-44
2023/02/26 14:28:54;;;;;;;;;;;;;;;;;;4972457;28;19910;-44
2023/02/26 14:31:21;;;;;;;;;;;;;;;;;;4972158;28;19982;-44
2023/02/26 14:33:46;;;;;;;;;;;;;;;;;;4973061;28;19906;-44
2023/02/26 14:36:12;;;;;;;;;;;;;;;;;;4971470;28;19964;-46
2023/02/26 14:38:39;;;;;;;;;;;;;;;;;;4973244;28;19910;-45
2023/02/26 14:41:05;;;;;;;;;;;;;;;;;;4968011;28;19910;-48
2023/02/26 14:43:31;;;;;;;;;;;;;;;;;;4972915;28;19913;-45
2023/02/26 14:45:57;;;;;;;;;;;;;;;;;;4971177;28;19953;-44
2023/02/26 14:48:31;;;;;;;;;;;;;;;;;;4972685;28;19910;-45
2023/02/26 14:50:57;;;;;;;;;;;;;;;;;;4972013;28;19913;-44
2023/02/26 14:53:23;;;;;;;;;;;;;;;;;;4971777;28;19910;-48
2023/02/26 14:55:49;;;;;;;;;;;;;;;;;;4972232;28;19925;-45
2023/02/26 14:58:15;;;;;;;;;;;;;;;;;;4972049;28;20011;-46
2023/02/26 15:00:40;;;;;;;;;;;;;;;;;;4970468;28;20387;-47
2023/02/26 15:03:07;;;;;;;;;;;;;;;;;;4966107;28;19941;-44
2023/02/26 15:05:33;;;;;;;;;;;;;;;;;;4971992;28;19914;-46
2023/02/26 15:07:59;;;;;;;;;;;;;;;;;;4972218;28;19917;-45
2023/02/26 15:10:24;;;;;;;;;;;;;;;;;;4972019;28;19906;-44
2023/02/26 15:12:50;;;;;;;;;;;;;;;;;;4968018;28;20307;-47
2023/02/26 15:15:16;;;;;;;;;;;;;;;;;;4970360;28;20507;-46
2023/02/26 15:17:42;;;;;;;;;;;;;;;;;;4972580;28;19910;-46
2023/02/26 15:20:08;;;;;;;;;;;;;;;;;;4971634;28;19910;-45
2023/02/26 15:22:34;;;;;;;;;;;;;;;;;;4972615;28;19993;-46
2023/02/26 15:25:01;;;;;;;;;;;;;;;;;;4970092;28;19910;-45
2023/02/26 15:27:27;;;;;;;;;;;;;;;;;;4972392;28;19941;-44
2023/02/26 15:29:53;;;;;;;;;;;;;;;;;;4972016;28;20046;-46
2023/02/26 15:32:19;;;;;;;;;;;;;;;;;;4971626;28;20442;-45
2023/02/26 15:34:45;;;;;;;;;;;;;;;;;;4971640;28;19921;-45
2023/02/26 15:37:11;;;;;;;;;;;;;;;;;;4970435;28;19918;-44
2023/02/26 15:39:37;;;;;;;;;;;;;;;;;;4971638;28;19906;-48
2023/02/26 15:42:04;;;;;;;;;;;;;;;;;;4981034;28;19952;-45
2023/02/26 15:44:29;;;;;;;;;;;;;;;;;;4975988;28;20330;-45
2023/02/26 15:46:55;;;;;;;;;;;;;;;;;;4974961;28;19913;-43
2023/02/26 15:49:21;;;;;;;;;;;;;;;;;;4975658;28;19906;-49
2023/02/26 15:51:47;;;;;;;;;;;;;;;;;;4976450;28;19933;-45
2023/02/26 15:54:13;;;;;;;;;;;;;;;;;;4975032;28;20219;-45
2023/02/26 15:56:40;;;;;;;;;;;;;;;;;;4976191;28;19933;-48
2023/02/26 15:59:06;;;;;;;;;;;;;;;;;;4972999;28;20001;-48
2023/02/26 16:01:31;;;;;;;;;;;;;;;;;;4975932;28;20389;-45
2023/02/26 16:03:57;;;;;;;;;;;;;;;;;;4975376;28;19906;-44
2023/02/26 16:06:23;;;;;;;;;;;;;;;;;;4976248;28;19906;-47
2023/02/26 16:08:49;;;;;;;;;;;;;;;;;;4974925;28;19918;-45
2023/02/26 16:11:15;;;;;;;;;;;;;;;;;;4974580;28;20059;-44
2023/02/26 16:13:41;;;;;;;;;;;;;;;;;;4975887;28;19991;-45
2023/02/26 16:16:08;;;;;;;;;;;;;;;;;;4968641;28;19984;-45
2023/02/26 16:18:34;;;;;;;;;;;;;;;;;;4973212;28;19910;-45
2023/02/26 16:21:00;;;;;;;;;;;;;;;;;;4974101;28;20338;-50
2023/02/26 16:23:26;;;;;;;;;;;;;;;;;;4975508;28;19906;-45
2023/02/26 16:25:52;;;;;;;;;;;;;;;;;;4974662;28;19913;-46
2023/02/26 16:28:18;;;;;;;;;;;;;;;;;;4974574;28;19914;-44
2023/02/26 16:30:44;;;;;;;;;;;;;;;;;;4973836;28;19910;-46
2023/02/26 16:33:09;;;;;;;;;;;;;;;;;;4974345;28;19928;-47
2023/02/26 16:35:35;;;;;;;;;;;;;;;;;;4974296;28;20008;-48